AFL783 LTFM-LBBG
Flight info
| Callsign | AFL783 |
|---|---|
| Flight time | 0h 24m |
| Altitude | 120 |
| Route | LTFM IBLAX P727 UVUDA LBBG |
| Aircraft | T134/M-S/L |
Departure
| Time | 2026-05-08 08:43 |
|---|---|
| Airport | İstanbul Airport (LTFM) |
Arrival
| Time | 2026-05-08 09:08 |
|---|---|
| Airport | Burgas Airport (LBBG) |
| Time | Latitude | Longitude | Altitude | Speed | Heading |
|---|---|---|---|---|---|
| 2026-05-08 08:00 | 41.25530 | 28.73627 | 334 ft | 0 kts | 89° |
| 2026-05-08 08:36 | 41.25530 | 28.73626 | 334 ft | 1 kts | 89° |
| 2026-05-08 08:36 | 41.25530 | 28.73608 | 334 ft | 1 kts | 89° |
| 2026-05-08 08:36 | 41.25530 | 28.73595 | 334 ft | 1 kts | 89° |
| 2026-05-08 08:36 | 41.25529 | 28.73583 | 334 ft | 2 kts | 71° |
| 2026-05-08 08:37 | 41.25520 | 28.73568 | 334 ft | 2 kts | 32° |
| 2026-05-08 08:37 | 41.25509 | 28.73563 | 334 ft | 0 kts | 2° |
| 2026-05-08 08:37 | 41.25502 | 28.73564 | 334 ft | 0 kts | 359° |
| 2026-05-08 08:39 | 41.25559 | 28.73562 | 334 ft | 15 kts | 358° |
| 2026-05-08 08:39 | 41.25609 | 28.73451 | 334 ft | 17 kts | 272° |
| 2026-05-08 08:39 | 41.25605 | 28.73276 | 334 ft | 20 kts | 267° |
| 2026-05-08 08:39 | 41.25655 | 28.73123 | 334 ft | 20 kts | 357° |
| 2026-05-08 08:40 | 41.25812 | 28.73117 | 334 ft | 24 kts | 359° |
| 2026-05-08 08:40 | 41.25991 | 28.73118 | 334 ft | 27 kts | 359° |
| 2026-05-08 08:40 | 41.26154 | 28.73116 | 334 ft | 13 kts | 359° |
| 2026-05-08 08:40 | 41.26218 | 28.73035 | 334 ft | 15 kts | 272° |
| 2026-05-08 08:41 | 41.26218 | 28.72958 | 334 ft | 0 kts | 268° |
| 2026-05-08 08:41 | 41.26218 | 28.72936 | 334 ft | 10 kts | 268° |
| 2026-05-08 08:41 | 41.26234 | 28.72785 | 334 ft | 12 kts | 323° |
| 2026-05-08 08:42 | 41.26288 | 28.72773 | 334 ft | 0 kts | 357° |
| 2026-05-08 08:42 | 41.26328 | 28.72771 | 334 ft | 33 kts | 358° |
| 2026-05-08 08:42 | 41.26888 | 28.72757 | 334 ft | 124 kts | 359° |
| 2026-05-08 08:43 | 41.28000 | 28.72732 | 430 ft | 184 kts | 358° |
| 2026-05-08 08:43 | 41.29414 | 28.72734 | 819 ft | 223 kts | 357° |
| 2026-05-08 08:43 | 41.31065 | 28.72588 | 1336 ft | 257 kts | 352° |
| 2026-05-08 08:43 | 41.32936 | 28.72393 | 2099 ft | 275 kts | 355° |
| 2026-05-08 08:44 | 41.34819 | 28.72290 | 3171 ft | 279 kts | 356° |
| 2026-05-08 08:44 | 41.36850 | 28.72199 | 3710 ft | 301 kts | 352° |
| 2026-05-08 08:44 | 41.38943 | 28.71704 | 4182 ft | 319 kts | 342° |
| 2026-05-08 08:44 | 41.41100 | 28.70550 | 4283 ft | 346 kts | 329° |
| 2026-05-08 08:45 | 41.43133 | 28.68892 | 4367 ft | 344 kts | 326° |
| 2026-05-08 08:45 | 41.45128 | 28.67169 | 4776 ft | 331 kts | 326° |
| 2026-05-08 08:45 | 41.46930 | 28.65554 | 5858 ft | 300 kts | 324° |
| 2026-05-08 08:45 | 41.48524 | 28.64064 | 6964 ft | 272 kts | 323° |
| 2026-05-08 08:46 | 41.50062 | 28.62643 | 7443 ft | 272 kts | 323° |
| 2026-05-08 08:46 | 41.51570 | 28.61242 | 8159 ft | 261 kts | 323° |
| 2026-05-08 08:46 | 41.53043 | 28.59877 | 8682 ft | 260 kts | 323° |
| 2026-05-08 08:46 | 41.54515 | 28.58482 | 9220 ft | 258 kts | 319° |
| 2026-05-08 08:47 | 41.55895 | 28.56953 | 9747 ft | 257 kts | 323° |
| 2026-05-08 08:47 | 41.57366 | 28.55647 | 10252 ft | 256 kts | 324° |
| 2026-05-08 08:47 | 41.58832 | 28.54315 | 10735 ft | 255 kts | 324° |
| 2026-05-08 08:47 | 41.60300 | 28.52992 | 11240 ft | 260 kts | 324° |
| 2026-05-08 08:48 | 41.61803 | 28.51617 | 11762 ft | 262 kts | 324° |
| 2026-05-08 08:48 | 41.63320 | 28.50221 | 12287 ft | 266 kts | 324° |
| 2026-05-08 08:48 | 41.64826 | 28.48819 | 12813 ft | 268 kts | 324° |
| 2026-05-08 08:48 | 41.66373 | 28.47370 | 13140 ft | 277 kts | 324° |
| 2026-05-08 08:49 | 41.67950 | 28.45888 | 12653 ft | 280 kts | 324° |
| 2026-05-08 08:49 | 41.69536 | 28.44399 | 12272 ft | 274 kts | 324° |
| 2026-05-08 08:49 | 41.71069 | 28.42974 | 12131 ft | 262 kts | 324° |
| 2026-05-08 08:49 | 41.72545 | 28.41599 | 12065 ft | 261 kts | 324° |
| 2026-05-08 08:50 | 41.74055 | 28.40198 | 12112 ft | 265 kts | 324° |
| 2026-05-08 08:50 | 41.75561 | 28.38797 | 12086 ft | 264 kts | 324° |
| 2026-05-08 08:50 | 41.77088 | 28.37380 | 12032 ft | 267 kts | 324° |
| 2026-05-08 08:50 | 41.78596 | 28.35974 | 11894 ft | 264 kts | 324° |
| 2026-05-08 08:51 | 41.80113 | 28.34567 | 11791 ft | 262 kts | 324° |
| 2026-05-08 08:51 | 41.81595 | 28.33189 | 11800 ft | 262 kts | 324° |
| 2026-05-08 08:51 | 41.83097 | 28.31793 | 11974 ft | 262 kts | 324° |
| 2026-05-08 08:51 | 41.84610 | 28.30381 | 12237 ft | 264 kts | 324° |
| 2026-05-08 08:52 | 41.86118 | 28.28979 | 12325 ft | 269 kts | 324° |
| 2026-05-08 08:52 | 41.87660 | 28.27538 | 12279 ft | 267 kts | 324° |
| 2026-05-08 08:52 | 41.89164 | 28.26136 | 12312 ft | 265 kts | 324° |
| 2026-05-08 08:52 | 41.90687 | 28.24712 | 12400 ft | 266 kts | 324° |
| 2026-05-08 08:53 | 41.92192 | 28.23303 | 12508 ft | 266 kts | 324° |
| 2026-05-08 08:53 | 41.93724 | 28.21863 | 12608 ft | 267 kts | 322° |
| 2026-05-08 08:53 | 41.95000 | 28.20050 | 12634 ft | 268 kts | 301° |
| 2026-05-08 08:53 | 41.95976 | 28.17959 | 12798 ft | 267 kts | 303° |
| 2026-05-08 08:54 | 41.96983 | 28.15837 | 12818 ft | 273 kts | 302° |
| 2026-05-08 08:54 | 41.98038 | 28.13586 | 13001 ft | 298 kts | 302° |
| 2026-05-08 08:54 | 41.99160 | 28.11181 | 13552 ft | 305 kts | 302° |
| 2026-05-08 08:54 | 42.00209 | 28.08920 | 14019 ft | 282 kts | 302° |
| 2026-05-08 08:55 | 42.01269 | 28.06641 | 13661 ft | 290 kts | 302° |
| 2026-05-08 08:55 | 42.02322 | 28.04370 | 13551 ft | 287 kts | 302° |
| 2026-05-08 08:55 | 42.03391 | 28.02069 | 13269 ft | 291 kts | 302° |
| 2026-05-08 08:55 | 42.04476 | 27.99745 | 13036 ft | 292 kts | 302° |
| 2026-05-08 08:56 | 42.05547 | 27.97464 | 12888 ft | 291 kts | 302° |
| 2026-05-08 08:56 | 42.06631 | 27.95159 | 12716 ft | 290 kts | 302° |
| 2026-05-08 08:56 | 42.07700 | 27.92888 | 12455 ft | 292 kts | 302° |
| 2026-05-08 08:56 | 42.08803 | 27.90555 | 12057 ft | 296 kts | 302° |
| 2026-05-08 08:57 | 42.09912 | 27.88218 | 11715 ft | 295 kts | 302° |
| 2026-05-08 08:57 | 42.11002 | 27.85928 | 11178 ft | 295 kts | 302° |
| 2026-05-08 08:57 | 42.12121 | 27.83589 | 10606 ft | 293 kts | 302° |
| 2026-05-08 08:57 | 42.13207 | 27.81317 | 10050 ft | 291 kts | 302° |
| 2026-05-08 08:58 | 42.14304 | 27.79030 | 9482 ft | 289 kts | 302° |
| 2026-05-08 08:58 | 42.15378 | 27.76797 | 8913 ft | 287 kts | 302° |
| 2026-05-08 08:58 | 42.16466 | 27.74549 | 8373 ft | 285 kts | 302° |
| 2026-05-08 08:58 | 42.17535 | 27.72357 | 7775 ft | 283 kts | 302° |
| 2026-05-08 08:59 | 42.18625 | 27.70152 | 7174 ft | 281 kts | 302° |
| 2026-05-08 08:59 | 42.19712 | 27.67963 | 6606 ft | 279 kts | 302° |
| 2026-05-08 08:59 | 42.20748 | 27.65887 | 6568 ft | 258 kts | 302° |
| 2026-05-08 08:59 | 42.21749 | 27.63892 | 6068 ft | 261 kts | 302° |
| 2026-05-08 09:00 | 42.22763 | 27.61854 | 5436 ft | 267 kts | 302° |
| 2026-05-08 09:00 | 42.23781 | 27.59796 | 5114 ft | 259 kts | 302° |
| 2026-05-08 09:00 | 42.24785 | 27.57764 | 4966 ft | 272 kts | 302° |
| 2026-05-08 09:00 | 42.25857 | 27.55598 | 5279 ft | 276 kts | 302° |
| 2026-05-08 09:01 | 42.26909 | 27.53457 | 5501 ft | 272 kts | 302° |
| 2026-05-08 09:01 | 42.27952 | 27.51349 | 5560 ft | 273 kts | 302° |
| 2026-05-08 09:01 | 42.29007 | 27.49206 | 5600 ft | 273 kts | 302° |
| 2026-05-08 09:01 | 42.30043 | 27.47086 | 5636 ft | 273 kts | 302° |
| 2026-05-08 09:02 | 42.31090 | 27.44935 | 5682 ft | 272 kts | 302° |
| 2026-05-08 09:02 | 42.32120 | 27.42817 | 5796 ft | 272 kts | 302° |
| 2026-05-08 09:02 | 42.33168 | 27.40669 | 5948 ft | 273 kts | 302° |
| 2026-05-08 09:02 | 42.34224 | 27.38521 | 6095 ft | 274 kts | 302° |
| 2026-05-08 09:03 | 42.35267 | 27.36404 | 6273 ft | 273 kts | 302° |
| 2026-05-08 09:03 | 42.36332 | 27.34250 | 6450 ft | 274 kts | 301° |
| 2026-05-08 09:03 | 42.37386 | 27.32121 | 6634 ft | 275 kts | 302° |
| 2026-05-08 09:03 | 42.38574 | 27.30077 | 6763 ft | 279 kts | 316° |
| 2026-05-08 09:04 | 42.40214 | 27.28748 | 6680 ft | 279 kts | 338° |
| 2026-05-08 09:04 | 42.42136 | 27.28263 | 6322 ft | 283 kts | 358° |
| 2026-05-08 09:04 | 42.44077 | 27.28725 | 5918 ft | 284 kts | 20° |
| 2026-05-08 09:04 | 42.45712 | 27.30098 | 5534 ft | 277 kts | 44° |
| 2026-05-08 09:05 | 42.46721 | 27.32230 | 4672 ft | 271 kts | 76° |
| 2026-05-08 09:05 | 42.47129 | 27.34652 | 3866 ft | 262 kts | 81° |
| 2026-05-08 09:05 | 42.47461 | 27.37036 | 3218 ft | 253 kts | 78° |
| 2026-05-08 09:05 | 42.47972 | 27.39230 | 2851 ft | 241 kts | 65° |
| 2026-05-08 09:06 | 42.48933 | 27.41039 | 2543 ft | 233 kts | 47° |
| 2026-05-08 09:06 | 42.50061 | 27.42461 | 2269 ft | 217 kts | 40° |
| 2026-05-08 09:06 | 42.51186 | 27.43801 | 1910 ft | 216 kts | 43° |
| 2026-05-08 09:06 | 42.52262 | 27.45221 | 1428 ft | 216 kts | 45° |
| 2026-05-08 09:07 | 42.53312 | 27.46639 | 960 ft | 213 kts | 45° |
| 2026-05-08 09:07 | 42.54360 | 27.48025 | 589 ft | 207 kts | 44° |
| 2026-05-08 09:07 | 42.55375 | 27.49355 | 282 ft | 196 kts | 45° |
| 2026-05-08 09:07 | 42.56289 | 27.50572 | 131 ft | 173 kts | 45° |
| 2026-05-08 09:08 | 42.57052 | 27.51582 | 143 ft | 120 kts | 43° |
| 2026-05-08 09:08 | 42.57418 | 27.52065 | 140 ft | 44 kts | 43° |
| 2026-05-08 09:08 | 42.57544 | 27.52227 | 137 ft | 21 kts | 44° |
| 2026-05-08 09:08 | 42.57641 | 27.52390 | 135 ft | 21 kts | 69° |
| 2026-05-08 09:09 | 42.57662 | 27.52529 | 133 ft | 4 kts | 91° |
| 2026-05-08 09:09 | 42.57662 | 27.52543 | 133 ft | 3 kts | 92° |
| 2026-05-08 09:09 | 42.57653 | 27.52619 | 133 ft | 11 kts | 116° |
| 2026-05-08 09:09 | 42.57572 | 27.52658 | 134 ft | 14 kts | 198° |
| 2026-05-08 09:10 | 42.57468 | 27.52549 | 135 ft | 24 kts | 220° |
| 2026-05-08 09:10 | 42.57317 | 27.52373 | 139 ft | 36 kts | 223° |
| 2026-05-08 09:10 | 42.57118 | 27.52145 | 143 ft | 38 kts | 219° |
| 2026-05-08 09:10 | 42.56911 | 27.51913 | 146 ft | 34 kts | 220° |
| 2026-05-08 09:11 | 42.56787 | 27.51745 | 145 ft | 12 kts | 220° |
| 2026-05-08 09:11 | 42.56742 | 27.51749 | 145 ft | 8 kts | 106° |
| 2026-05-08 09:11 | 42.56738 | 27.51767 | 145 ft | 0 kts | 102° |